Time;durP1;ratioP1;P1;durP2;ratioP2;P2;SDS_P1;SDS_P2;PMS_P1;PMS_P2;Temp;Humidity;BMP_temperature;BMP_pressure;BME280_temperature;BME280_humidity;BME280_pressure;Samples;Min_cycle;Max_cycle;Signal;HPM_P1;HPM_P2
2023/03/22 00:00:36;;;;;;;47.10;24.57;;;;;;;-141.97;83.02;47695.91;4993445;28;20658;-84
2023/03/22 00:03:02;;;;;;;46.47;23.63;;;;;;;-141.97;83.22;47678.63;4992989;28;20171;-83
2023/03/22 00:05:31;;;;;;;49.83;24.33;;;;;;;-141.97;84.13;47776.63;4993334;28;20743;-84
2023/03/22 00:07:57;;;;;;;49.33;25.20;;;;;;;-141.97;84.41;47597.88;4993055;28;20632;-85
2023/03/22 00:10:27;;;;;;;49.27;24.50;;;;;;;-141.97;84.75;47565.22;4992820;28;20178;-85
2023/03/22 00:12:54;;;;;;;46.90;24.27;;;;;;;-141.97;84.87;47586.34;4992240;28;20243;-85
2023/03/22 00:15:19;;;;;;;53.73;24.50;;;;;;;-141.97;84.45;47557.53;4992781;28;20612;-84
2023/03/22 00:17:44;;;;;;;50.00;25.47;;;;;;;-141.97;84.88;47557.53;4993209;28;20210;-83
2023/03/22 00:20:11;;;;;;;47.10;25.07;;;;;;;-141.97;85.19;47676.69;4992647;28;20631;-84
2023/03/22 00:22:37;;;;;;;49.40;25.73;;;;;;;-141.97;84.72;47678.63;4992975;28;20176;-83
2023/03/22 00:25:04;;;;;;;50.07;26.83;;;;;;;-141.97;85.19;47753.56;4992632;28;20191;-83
2023/03/22 00:27:30;;;;;;;55.73;26.77;;;;;;;-141.97;85.00;47578.66;4992848;28;20239;-83
2023/03/22 00:29:56;;;;;;;56.00;27.97;;;;;;;-141.97;84.58;47684.38;4992567;28;20186;-84
2023/03/22 00:32:21;;;;;;;55.17;28.47;;;;;;;-141.97;85.14;47674.78;4992600;28;20242;-84
2023/03/22 00:34:47;;;;;;;60.20;27.77;;;;;;;-141.97;84.42;47692.06;4992843;28;20604;-83
2023/03/22 00:37:12;;;;;;;57.13;28.50;;;;;;;-141.97;85.19;47572.91;4993396;28;20167;-84
2023/03/22 00:39:38;;;;;;;58.67;28.23;;;;;;;-141.97;84.91;47740.13;4992374;28;20171;-84
2023/03/22 00:42:05;;;;;;;61.67;29.23;;;;;;;-141.97;85.31;47665.16;4992790;28;20262;-85
2023/03/22 00:44:31;;;;;;;62.67;29.17;;;;;;;-141.97;85.25;47709.38;4992435;28;20516;-84
2023/03/22 00:46:57;;;;;;;56.70;27.47;;;;;;;-141.97;84.81;47665.16;4992157;28;20167;-83
2023/03/22 00:49:24;;;;;;;54.13;26.87;;;;;;;-141.97;84.55;47507.53;4992225;28;20174;-84
2023/03/22 00:51:50;;;;;;;64.50;29.03;;;;;;;-141.97;84.98;47705.53;4991994;28;20163;-83
2023/03/22 00:54:16;;;;;;;56.37;27.67;;;;;;;-141.97;84.59;47718.97;4991113;28;20221;-83
2023/03/22 00:56:44;;;;;;;56.50;27.20;;;;;;;-141.97;84.48;47665.16;4992571;28;20183;-84
2023/03/22 00:59:10;;;;;;;54.50;27.10;;;;;;;-141.97;84.38;47722.81;4993498;28;20167;-84
2023/03/22 01:01:36;;;;;;;58.47;27.33;;;;;;;-141.97;84.20;47542.16;4996668;28;20168;-83
2023/03/22 01:04:01;;;;;;;54.63;27.53;;;;;;;-141.97;84.55;47676.69;4992045;28;20164;-84
2023/03/22 01:06:27;;;;;;;54.23;26.60;;;;;;;-141.97;83.89;47722.81;4991944;28;20214;-84
2023/03/22 01:08:53;;;;;;;53.17;25.87;;;;;;;-141.97;83.54;47538.28;4992061;28;20612;-84
2023/03/22 01:11:19;;;;;;;57.53;27.47;;;;;;;-141.97;83.24;47688.22;4992325;28;20218;-84
2023/03/22 01:13:46;;;;;;;56.13;26.67;;;;;;;-141.97;83.95;47770.88;4992277;28;20171;-84
2023/03/22 01:16:12;;;;;;;50.73;25.80;;;;;;;-141.97;84.12;47697.84;4993051;28;20155;-84
2023/03/22 01:18:38;;;;;;;53.17;25.20;;;;;;;-141.97;84.14;47534.44;4991520;28;20270;-84
2023/03/22 01:21:04;;;;;;;57.13;25.97;;;;;;;-141.97;84.04;47672.84;4992537;28;20191;-84
2023/03/22 01:23:29;;;;;;;56.47;25.70;;;;;;;-141.97;84.08;47763.19;4992789;28;20225;-83
2023/03/22 01:25:55;;;;;;;52.53;25.73;;;;;;;-141.97;83.50;47557.53;4992832;28;20253;-83
2023/03/22 01:28:20;;;;;;;52.53;25.90;;;;;;;-141.97;83.16;47572.91;4993059;28;20178;-83
2023/03/22 01:30:45;;;;;;;50.27;25.33;;;;;;;-141.97;83.57;47680.53;4992973;28;20168;-84
2023/03/22 01:33:11;;;;;;;49.90;24.93;;;;;;;-141.97;82.78;47797.78;4992466;28;20164;-84
2023/03/22 01:35:36;;;;;;;50.60;25.00;;;;;;;-141.97;82.06;47588.28;4992264;28;20175;-84
2023/03/22 01:38:02;;;;;;;50.50;24.90;;;;;;;-141.97;81.87;47617.09;4992386;28;20605;-84
2023/03/22 01:40:28;;;;;;;54.40;26.87;;;;;;;-141.97;81.92;47705.53;4992350;28;20167;-84
2023/03/22 01:42:55;;;;;;;53.40;26.70;;;;;;;-141.97;82.06;47659.38;4992673;28;20163;-84
2023/03/22 01:45:34;;;;;;;57.47;28.03;;;;;;;-141.97;82.58;47672.84;4992798;28;20707;-84
2023/03/22 01:48:32;;;;;;;56.73;27.70;;;;;;;-141.97;82.96;47667.06;4991238;28;20179;-84
2023/03/22 01:51:12;;;;;;;54.30;26.77;;;;;;;-141.97;83.64;47611.34;4970904;28;20718;-84
2023/03/22 01:53:46;;;;;;;50.90;24.93;;;;;;;-141.97;84.15;47663.22;4970715;28;20677;-83
2023/03/22 01:56:11;;;;;;;49.53;24.23;;;;;;;-141.97;84.19;47690.16;4970571;28;20200;-86
2023/03/22 01:58:39;;;;;;;50.00;24.57;;;;;;;-141.97;84.64;47707.44;4970180;28;20172;-85
2023/03/22 02:01:06;;;;;;;47.87;23.70;;;;;;;-141.97;84.95;47707.44;4970779;28;20776;-84
2023/03/22 02:04:03;;;;;;;54.67;24.00;;;;;;;-141.97;85.49;47717.06;4970493;28;20180;-85
2023/03/22 02:06:31;;;;;;;45.40;23.47;;;;;;;-141.97;85.19;47624.78;4912735;29;20655;-85
2023/03/22 02:08:57;;;;;;;49.37;24.50;;;;;;;-141.97;85.52;47680.53;4912831;29;20253;-82
2023/03/22 02:11:34;;;;;;;45.30;24.27;;;;;;;-141.97;85.21;47690.16;4913034;29;20537;-85
2023/03/22 02:14:40;;;;;;;47.90;23.70;;;;;;;-141.97;85.21;47703.59;4912615;29;20670;-83
2023/03/22 02:17:26;;;;;;;51.30;24.50;;;;;;;-141.97;85.26;47724.75;4929397;29;20591;-82
2023/03/22 02:20:19;;;;;;;47.17;23.83;;;;;;;-141.97;85.40;47709.38;4933237;29;20218;-82
2023/03/22 02:22:59;;;;;;;47.00;22.70;;;;;;;-141.97;85.65;47707.44;4928333;29;20710;-83
2023/03/22 02:25:35;;;;;;;46.03;24.43;;;;;;;-141.97;85.82;47642.09;4914369;29;20274;-84
2023/03/22 02:28:17;;;;;;;50.60;23.93;;;;;;;-141.97;85.33;47684.38;4933813;29;20196;-83
2023/03/22 02:31:15;;;;;;;48.90;24.27;;;;;;;-141.97;85.50;47707.44;4951678;29;20650;-84
2023/03/22 02:33:44;;;;;;;50.77;23.77;;;;;;;-141.97;85.33;47695.91;4951061;28;20161;-83
2023/03/22 02:36:47;;;;;;;50.07;23.50;;;;;;;-141.97;85.48;47672.84;4953099;29;20255;-84
2023/03/22 02:40:09;;;;;;;51.87;24.30;;;;;;;-141.97;86.12;47718.97;4954581;29;20201;-84
2023/03/22 02:42:46;;;;;;;48.53;23.83;;;;;;;-141.97;86.39;47684.38;4859778;29;20231;-85
2023/03/22 02:45:33;;;;;;;51.00;25.07;;;;;;;-141.97;86.35;47701.69;4859971;29;20215;-83
2023/03/22 02:48:37;;;;;;;48.80;24.43;;;;;;;-141.97;86.18;47695.91;4860036;29;20661;-83
2023/03/22 02:51:33;;;;;;;51.70;25.70;;;;;;;-141.97;86.43;47703.59;4841344;29;20216;-83
2023/03/22 02:54:17;;;;;;;53.43;24.93;;;;;;;-141.97;87.13;47697.84;4841905;29;20669;-83
2023/03/22 02:56:50;;;;;;;52.23;25.47;;;;;;;-141.97;86.49;47665.16;4841295;29;20197;-83
2023/03/22 02:59:18;;;;;;;64.03;29.60;;;;;;;-141.97;85.74;47680.53;4841220;29;20207;-83
2023/03/22 03:01:54;;;;;;;51.00;25.37;;;;;;;-141.97;85.60;47682.47;4841450;29;20713;-83
2023/03/22 03:04:25;;;;;;;52.63;26.03;;;;;;;-141.97;85.52;47705.53;4841400;29;20211;-84
2023/03/22 03:06:54;;;;;;;49.63;24.17;;;;;;;-141.97;84.98;47684.38;4840911;29;20605;-83
2023/03/22 03:09:20;;;;;;;48.00;24.57;;;;;;;-141.97;85.54;47695.91;4841181;29;20245;-83
2023/03/22 03:11:49;;;;;;;52.03;24.97;;;;;;;-141.97;85.56;47688.22;4841128;29;20316;-83
2023/03/22 03:14:29;;;;;;;47.70;25.43;;;;;;;-141.97;85.81;47703.59;4840830;29;20701;-83
2023/03/22 03:17:15;;;;;;;50.37;25.17;;;;;;;-141.97;85.71;47707.44;4837369;29;20488;-82
2023/03/22 03:19:54;;;;;;;53.10;24.70;;;;;;;-141.97;85.38;47661.31;4834040;29;20337;-83
2023/03/22 03:22:57;;;;;;;49.13;25.37;;;;;;;-141.97;85.68;47749.72;4859738;29;20172;-83
2023/03/22 03:25:31;;;;;;;49.87;25.17;;;;;;;-141.97;85.42;47682.47;4860145;29;20248;-83
2023/03/22 03:28:07;;;;;;;48.30;25.87;;;;;;;-141.97;85.30;47653.63;4925996;29;20193;-83
2023/03/22 03:30:58;;;;;;;60.43;29.20;;;;;;;-141.97;85.20;47711.28;4951488;28;20199;-83
2023/03/22 03:33:26;;;;;;;55.73;27.80;;;;;;;-141.97;86.68;47649.78;4989101;28;20176;-84
2023/03/22 03:36:00;;;;;;;57.53;27.17;;;;;;;-141.97;87.54;47592.13;4974447;28;20254;-84
2023/03/22 03:38:29;;;;;;;53.17;26.93;;;;;;;-141.97;88.25;47795.88;4974124;28;20185;-84
2023/03/22 03:40:59;;;;;;;52.77;27.37;;;;;;;-141.97;88.72;47740.13;4989213;28;20603;-84
2023/03/22 03:43:26;;;;;;;55.10;27.97;;;;;;;-141.97;88.95;47695.91;4974170;28;20629;-84
2023/03/22 03:45:53;;;;;;;52.47;28.20;;;;;;;-141.97;89.02;47588.28;4974021;28;20267;-84
2023/03/22 03:48:21;;;;;;;49.37;27.23;;;;;;;-141.97;89.55;47670.91;4974104;28;20173;-84
2023/03/22 03:50:50;;;;;;;53.13;28.27;;;;;;;-141.97;90.63;47647.84;4974125;28;20203;-84
2023/03/22 03:53:16;;;;;;;54.37;28.67;;;;;;;-141.97;91.35;47717.06;4973996;28;20578;-84
2023/03/22 03:55:41;;;;;;;53.97;29.27;;;;;;;-141.97;91.37;47601.72;4974057;28;20161;-84
2023/03/22 03:58:08;;;;;;;55.83;28.83;;;;;;;-141.97;91.89;47736.28;4974199;28;20617;-85
2023/03/22 04:00:34;;;;;;;50.53;27.70;;;;;;;-141.97;91.34;47826.63;4983696;28;20228;-85
2023/03/22 04:03:00;;;;;;;51.80;28.43;;;;;;;-141.97;90.45;47672.84;4976254;28;20172;-83
2023/03/22 04:05:25;;;;;;;50.67;28.33;;;;;;;-141.97;90.39;47519.06;4974022;28;20188;-83
2023/03/22 04:07:51;;;;;;;48.67;26.87;;;;;;;-141.97;89.64;47728.59;4974310;28;20251;-84
2023/03/22 04:10:16;;;;;;;48.43;25.83;;;;;;;-141.97;89.06;47726.66;4974421;28;20196;-84
2023/03/22 04:12:42;;;;;;;45.03;25.47;;;;;;;-141.97;89.22;47715.13;4974647;28;20218;-84
2023/03/22 04:15:08;;;;;;;49.97;26.67;;;;;;;-141.97;90.08;47793.94;4974486;28;20160;-84
2023/03/22 04:17:33;;;;;;;52.00;26.40;;;;;;;-141.97;91.04;47694.00;4974063;28;20247;-84
2023/03/22 04:20:03;;;;;;;49.77;26.40;;;;;;;-141.97;91.49;47722.81;4974213;28;20168;-84
2023/03/22 04:22:33;;;;;;;46.13;25.70;;;;;;;-141.97;92.28;47718.97;4974202;28;20242;-84
2023/03/22 04:25:00;;;;;;;49.47;26.17;;;;;;;-141.97;92.97;47832.38;4973696;28;20607;-84
2023/03/22 04:27:26;;;;;;;51.20;27.10;;;;;;;-141.97;93.48;47688.22;4973378;28;20162;-84
2023/03/22 04:29:53;;;;;;;46.03;25.83;;;;;;;-141.97;94.18;47715.13;4973681;28;20613;-84
2023/03/22 04:32:21;;;;;;;48.50;25.83;;;;;;;-141.97;94.85;47763.19;4973179;28;20202;-84
2023/03/22 04:34:48;;;;;;;52.47;26.43;;;;;;;-141.97;95.44;47688.22;4988639;28;20625;-84
2023/03/22 04:37:14;;;;;;;49.20;26.20;;;;;;;-141.97;95.82;47586.34;4973001;28;20250;-83
2023/03/22 04:39:41;;;;;;;45.27;24.43;;;;;;;-141.97;95.87;47724.75;4973339;28;20609;-84
2023/03/22 04:42:07;;;;;;;50.57;26.10;;;;;;;-141.97;96.94;47818.94;4973323;28;20224;-84
2023/03/22 04:44:32;;;;;;;50.03;25.90;;;;;;;-141.97;98.17;47697.84;4973032;28;20166;-85
2023/03/22 04:46:58;;;;;;;58.37;30.60;;;;;;;-141.97;98.71;47649.78;4977501;28;20202;-84
2023/03/22 04:49:25;;;;;;;60.27;30.13;;;;;;;-141.97;99.54;47711.28;4992450;28;20171;-83
2023/03/22 04:51:51;;;;;;;63.27;32.70;;;;;;;-141.97;100.00;47765.09;4992317;28;20546;-84
2023/03/22 04:54:16;;;;;;;68.37;35.37;;;;;;;-141.97;100.00;47730.50;4992428;28;20214;-83
2023/03/22 04:56:41;;;;;;;50.53;27.37;;;;;;;-141.97;100.00;47734.34;4992305;28;20543;-83
2023/03/22 04:59:07;;;;;;;60.50;33.30;;;;;;;-141.97;100.00;47661.31;4991889;28;20172;-83
2023/03/22 05:01:34;;;;;;;56.83;28.43;;;;;;;-141.97;100.00;47699.75;4992199;28;20171;-84
2023/03/22 05:03:59;;;;;;;53.23;27.37;;;;;;;-141.97;100.00;47788.19;4973194;28;20270;-84
2023/03/22 05:06:25;;;;;;;56.10;28.40;;;;;;;-141.97;100.00;47657.47;4991216;28;20238;-83
2023/03/22 05:08:50;;;;;;;52.57;28.30;;;;;;;-141.97;100.00;47811.25;4992017;28;20206;-84
2023/03/22 05:11:19;;;;;;;52.47;26.67;;;;;;;-141.97;99.71;47747.81;4991787;28;20164;-84
2023/03/22 05:13:44;;;;;;;49.43;25.40;;;;;;;-141.97;99.12;47740.13;4991818;28;20179;-86
2023/03/22 05:16:11;;;;;;;51.23;26.00;;;;;;;-141.97;98.64;47638.25;4992147;28;20229;-83
2023/03/22 05:18:44;;;;;;;67.73;31.97;;;;;;;-141.97;100.00;47845.84;4992159;28;20175;-83
2023/03/22 05:21:14;;;;;;;56.73;28.67;;;;;;;-141.97;100.00;47636.31;4984469;28;20605;-84
2023/03/22 05:23:40;;;;;;;62.57;30.30;;;;;;;-141.97;100.00;47803.56;4972855;28;20164;-84
2023/03/22 05:26:07;;;;;;;67.23;31.37;;;;;;;-141.97;100.00;47684.38;4972477;28;20566;-84
2023/03/22 05:28:33;;;;;;;65.27;32.43;;;;;;;-141.97;100.00;47703.59;4972593;28;20156;-84
2023/03/22 05:30:59;;;;;;;70.33;34.83;;;;;;;-141.97;100.00;47807.41;4972672;28;20179;-84
2023/03/22 05:33:24;;;;;;;65.87;32.97;;;;;;;-141.97;100.00;47703.59;4972474;28;20171;-84
2023/03/22 05:35:49;;;;;;;56.50;29.90;;;;;;;-141.97;100.00;47770.88;4971758;28;20527;-83
2023/03/22 05:38:15;;;;;;;59.70;29.60;;;;;;;-141.97;100.00;47768.94;4972310;28;20537;-84
2023/03/22 05:40:42;;;;;;;58.30;30.43;;;;;;;-141.97;100.00;47772.78;4972297;28;20278;-83
2023/03/22 05:43:07;;;;;;;64.73;32.43;;;;;;;-141.97;100.00;47728.59;4972498;28;20596;-83
2023/03/22 05:45:35;;;;;;;61.73;30.30;;;;;;;-141.97;100.00;47736.28;4971788;28;20199;-83
2023/03/22 05:48:01;;;;;;;59.93;31.07;;;;;;;-141.97;100.00;47715.13;4971916;28;20164;-83
2023/03/22 05:50:27;;;;;;;73.47;34.87;;;;;;;-141.97;100.00;47680.53;4972020;28;20192;-83
2023/03/22 05:52:52;;;;;;;62.53;31.77;;;;;;;-141.97;100.00;47834.31;4972214;28;20243;-85
2023/03/22 05:55:18;;;;;;;68.20;34.00;;;;;;;-141.97;100.00;47665.16;4973891;28;20184;-81
2023/03/22 05:57:50;;;;;;;54.43;29.40;;;;;;;-141.97;99.72;47715.13;4975200;28;20168;-84
2023/03/22 06:00:17;;;;;;;64.23;31.80;;;;;;;-141.97;99.54;47713.22;4972408;28;20171;-84
2023/03/22 06:02:44;;;;;;;59.37;28.30;;;;;;;-141.97;99.19;47599.81;4978962;28;20705;-84
2023/03/22 06:05:10;;;;;;;57.70;27.93;;;;;;;-141.97;99.07;47711.28;4982200;28;20721;-84
2023/03/22 06:07:37;;;;;;;55.33;27.40;;;;;;;-141.97;99.40;47707.44;4991338;28;20164;-84
2023/03/22 06:10:03;;;;;;;52.97;27.87;;;;;;;-141.97;99.30;47770.88;4992261;28;20233;-85
2023/03/22 06:12:30;;;;;;;53.60;27.23;;;;;;;-141.97;99.35;47659.38;4995308;28;20174;-84
2023/03/22 06:14:55;;;;;;;54.27;26.67;;;;;;;-141.97;99.29;47770.88;4994851;28;20175;-85
2023/03/22 06:17:21;;;;;;;50.60;26.00;;;;;;;-141.97;99.36;47809.31;4995292;28;20194;-85
2023/03/22 06:19:46;;;;;;;58.43;28.00;;;;;;;-141.97;99.15;47715.13;5010047;28;20175;-84
2023/03/22 06:22:12;;;;;;;56.83;27.70;;;;;;;-141.97;98.76;47813.16;4995706;28;20577;-84
2023/03/22 06:24:39;;;;;;;64.30;32.90;;;;;;;-141.97;98.85;47684.38;4994636;28;20179;-84
2023/03/22 06:27:05;;;;;;;60.67;31.70;;;;;;;-141.97;98.98;47690.16;4994688;28;20191;-83
2023/03/22 06:29:32;;;;;;;60.60;32.17;;;;;;;-141.97;99.03;47669.00;4995057;28;20517;-83
2023/03/22 06:31:57;;;;;;;59.77;30.23;;;;;;;-141.97;98.85;47742.03;4994874;28;20166;-84
2023/03/22 06:34:23;;;;;;;62.30;31.73;;;;;;;-141.97;99.31;47640.16;4993985;28;20179;-85
2023/03/22 06:36:48;;;;;;;63.63;33.93;;;;;;;-141.97;98.92;47701.69;4994684;28;20238;-86
2023/03/22 06:39:13;;;;;;;64.17;34.10;;;;;;;-141.97;99.04;47615.19;4994688;28;20222;-83
2023/03/22 06:41:39;;;;;;;64.83;32.43;;;;;;;-141.97;99.18;47743.97;4994694;28;20722;-83
2023/03/22 06:44:04;;;;;;;61.53;32.27;;;;;;;-141.97;98.46;47742.03;4994292;28;20187;-84
2023/03/22 06:46:30;;;;;;;59.40;30.80;;;;;;;-141.97;98.88;47803.56;4994093;28;20188;-84
2023/03/22 06:48:55;;;;;;;61.13;31.00;;;;;;;-141.97;99.57;47730.50;4990355;28;20680;-83
2023/03/22 06:51:21;;;;;;;65.67;33.23;;;;;;;-141.97;99.82;47707.44;4994711;28;20171;-82
2023/03/22 06:53:47;;;;;;;61.23;31.37;;;;;;;-141.97;99.84;47672.84;4981811;28;20674;-83
2023/03/22 06:56:12;;;;;;;123.27;61.83;;;;;;;-141.97;99.93;47749.72;4974991;28;20475;-82
2023/03/22 06:58:38;;;;;;;150.30;76.87;;;;;;;-141.97;100.00;47726.66;4974552;28;20179;-82
2023/03/22 07:01:03;;;;;;;198.73;110.33;;;;;;;-141.97;100.00;47622.88;4980737;28;20256;-81
2023/03/22 07:03:29;;;;;;;211.20;114.30;;;;;;;-141.97;100.00;47722.81;4975601;28;20325;-82
2023/03/22 07:06:06;;;;;;;180.67;95.17;;;;;;;-141.97;100.00;47718.97;4984041;28;20243;-82
2023/03/22 07:08:32;;;;;;;145.27;68.73;;;;;;;-141.97;100.00;47703.59;4974701;28;20656;-85
2023/03/22 07:10:58;;;;;;;151.67;75.47;;;;;;;-141.97;100.00;47717.06;4974868;28;20668;-83
2023/03/22 07:13:23;;;;;;;117.40;55.43;;;;;;;-141.97;100.00;47736.28;4974741;28;20188;-83
2023/03/22 07:15:49;;;;;;;81.73;36.17;;;;;;;-141.97;100.00;47713.22;4974193;28;20230;-84
2023/03/22 07:18:14;;;;;;;78.03;35.70;;;;;;;-141.97;100.00;47778.56;4975061;28;20164;-83
2023/03/22 07:20:41;;;;;;;66.07;30.40;;;;;;;-141.97;100.00;47792.03;4974452;28;20201;-83
2023/03/22 07:23:09;;;;;;;77.47;35.40;;;;;;;-141.97;100.00;47732.44;4974259;28;20596;-83
2023/03/22 07:25:35;;;;;;;65.43;30.10;;;;;;;-141.97;100.00;47742.03;4973924;28;20199;-82
2023/03/22 07:28:00;;;;;;;72.50;32.07;;;;;;;-141.97;100.00;47753.56;4974504;28;20174;-83
2023/03/22 07:30:26;;;;;;;64.93;29.57;;;;;;;-141.97;100.00;47626.72;4962891;28;20231;-82
2023/03/22 07:32:51;;;;;;;78.47;34.60;;;;;;;-141.97;100.00;47745.88;4974518;28;20238;-82
2023/03/22 07:35:17;;;;;;;86.87;35.40;;;;;;;-141.97;100.00;47751.66;4972470;28;20330;-82
2023/03/22 07:37:43;;;;;;;86.90;37.77;;;;;;;-141.97;100.00;47692.06;4974188;28;20164;-82
2023/03/22 07:40:10;;;;;;;85.50;35.67;;;;;;;-141.97;100.00;47711.28;4974520;28;20229;-82
2023/03/22 07:42:35;;;;;;;82.13;35.70;;;;;;;-141.97;100.00;47703.59;4974336;28;20282;-82
2023/03/22 07:45:01;;;;;;;79.03;35.10;;;;;;;-141.97;100.00;47659.38;4973647;28;20263;-83
2023/03/22 07:47:26;;;;;;;86.23;38.60;;;;;;;-141.97;100.00;47742.03;4984463;28;20195;-81
2023/03/22 07:49:51;;;;;;;118.63;51.20;;;;;;;-141.97;100.00;47743.97;4989571;28;20766;-82
2023/03/22 07:52:17;;;;;;;146.20;70.80;;;;;;;-141.97;100.00;47713.22;4988966;28;20187;-83
2023/03/22 07:54:43;;;;;;;79.33;37.03;;;;;;;-141.97;100.00;47557.53;4975463;28;20578;-84
2023/03/22 07:57:08;;;;;;;73.57;36.80;;;;;;;-141.97;100.00;47703.59;4974517;28;20183;-84
2023/03/22 07:59:34;;;;;;;79.50;38.63;;;;;;;-141.97;100.00;47703.59;4973979;28;20168;-84
2023/03/22 08:01:59;;;;;;;70.33;33.07;;;;;;;-141.97;100.00;47822.78;4973927;28;20638;-83
2023/03/22 08:04:25;;;;;;;65.30;33.07;;;;;;;-141.97;100.00;47728.59;4973748;28;20168;-83
2023/03/22 08:06:50;;;;;;;63.60;32.70;;;;;;;-141.97;100.00;47653.63;4973436;28;20283;-84
2023/03/22 08:09:17;;;;;;;75.87;37.63;;;;;;;-141.97;100.00;47713.22;4973973;28;20165;-83
2023/03/22 08:11:42;;;;;;;59.57;28.63;;;;;;;-141.97;100.00;47718.97;4973735;28;20149;-83
2023/03/22 08:14:08;;;;;;;69.90;32.93;;;;;;;-141.97;100.00;47711.28;4973253;28;20179;-84
2023/03/22 08:16:34;;;;;;;65.43;32.23;;;;;;;-141.97;100.00;47770.88;4973110;28;20235;-83
2023/03/22 08:18:59;;;;;;;68.57;32.13;;;;;;;-141.97;100.00;47718.97;4973104;28;20250;-83
2023/03/22 08:21:26;;;;;;;64.27;31.33;;;;;;;-141.97;100.00;47613.25;4973415;28;20648;-83
2023/03/22 08:23:51;;;;;;;65.67;31.67;;;;;;;-141.97;100.00;47711.28;4973081;28;20671;-84
2023/03/22 08:26:18;;;;;;;61.23;31.47;;;;;;;-141.97;100.00;47674.78;4973149;28;20220;-83
2023/03/22 08:28:43;;;;;;;59.57;31.20;;;;;;;-141.97;97.53;47718.97;4973453;28;20168;-84
2023/03/22 08:31:14;;;;;;;54.13;29.47;;;;;;;-141.97;94.19;47726.66;4973137;28;20247;-83
2023/03/22 08:33:40;;;;;;;43.80;24.63;;;;;;;-141.97;89.45;47688.22;4975353;28;20247;-83
2023/03/22 08:36:08;;;;;;;40.90;22.80;;;;;;;-141.97;84.76;47718.97;4975785;28;20189;-84
2023/03/22 08:38:34;;;;;;;43.43;24.10;;;;;;;-141.97;81.57;47626.72;4972652;28;20204;-83
2023/03/22 08:40:59;;;;;;;44.70;23.77;;;;;;;-141.97;79.81;47688.22;4972222;28;20224;-84
2023/03/22 08:43:25;;;;;;;45.63;24.43;;;;;;;-141.97;78.59;47647.84;4972898;28;20287;-83
2023/03/22 08:45:50;;;;;;;43.93;24.20;;;;;;;-141.97;77.03;47694.00;4972843;28;20223;-82
2023/03/22 08:48:16;;;;;;;41.60;23.57;;;;;;;-141.97;77.06;47703.59;4971657;28;20168;-83
2023/03/22 08:50:41;;;;;;;39.90;23.10;;;;;;;-141.97;76.70;47684.38;4972982;28;20193;-81
2023/03/22 08:53:07;;;;;;;48.37;27.10;;;;;;;-141.97;77.08;47713.22;4972821;28;20250;-82
2023/03/22 08:55:34;;;;;;;52.03;29.30;;;;;;;-141.97;76.43;47595.97;4973225;28;20244;-83
2023/03/22 08:58:00;;;;;;;52.03;26.77;;;;;;;-141.97;78.28;47726.66;4973059;28;20164;-83
2023/03/22 09:00:26;;;;;;;51.93;27.10;;;;;;;-141.97;80.24;47695.91;4971021;28;20175;-82
2023/03/22 09:02:51;;;;;;;57.00;28.90;;;;;;;-141.97;80.18;47676.69;4962190;28;20247;-82
2023/03/22 09:05:17;;;;;;;56.70;29.10;;;;;;;-141.97;81.11;47703.59;4972857;28;20191;-82
2023/03/22 09:07:43;;;;;;;58.50;30.70;;;;;;;-141.97;81.43;47718.97;4972649;28;20179;-84
2023/03/22 09:10:09;;;;;;;63.10;30.90;;;;;;;-141.97;82.44;47611.34;4972679;28;20160;-82
2023/03/22 09:12:35;;;;;;;65.30;33.20;;;;;;;-141.97;82.70;47617.09;4972732;28;20556;-82
2023/03/22 09:15:01;;;;;;;54.57;26.13;;;;;;;-141.97;81.54;47718.97;4972664;28;20210;-80
2023/03/22 09:17:27;;;;;;;52.57;27.20;;;;;;;-141.97;81.97;47701.69;4972672;28;20168;-82
2023/03/22 09:19:52;;;;;;;55.67;27.60;;;;;;;-141.97;82.27;47776.63;4972458;28;20670;-82
2023/03/22 09:22:17;;;;;;;53.23;28.40;;;;;;;-141.97;81.55;47742.03;4971777;28;20172;-82
2023/03/22 09:24:43;;;;;;;53.23;28.67;;;;;;;-141.97;80.64;47872.75;4972626;28;20577;-81
2023/03/22 09:27:08;;;;;;;54.87;28.43;;;;;;;-141.97;79.69;47776.63;4972048;28;20227;-81
2023/03/22 09:29:34;;;;;;;54.73;28.70;;;;;;;-141.97;78.10;47718.97;4972232;28;20160;-82
2023/03/22 09:31:59;;;;;;;55.43;28.23;;;;;;;-141.97;77.71;47718.97;4971986;28;20560;-82
2023/03/22 09:34:25;;;;;;;51.07;24.90;;;;;;;-141.97;78.71;47549.84;4972474;28;20652;-82
2023/03/22 09:36:51;;;;;;;48.80;26.27;;;;;;;-141.97;78.59;47776.63;4972207;28;20162;-81
2023/03/22 09:39:17;;;;;;;49.90;27.07;;;;;;;-141.97;77.38;47657.47;4972432;28;20246;-82
2023/03/22 09:41:49;;;;;;;49.13;25.83;;;;;;;-141.97;77.98;47678.63;4978771;28;20243;-83
2023/03/22 09:44:27;;;;;;;50.90;26.60;;;;;;;-141.97;78.88;47680.53;4974822;28;20188;-82
2023/03/22 09:46:58;;;;;;;47.33;24.87;;;;;;;-141.97;77.50;47726.66;4976890;28;20687;-82
2023/03/22 09:49:29;;;;;;;50.53;25.10;;;;;;;-141.97;78.33;47722.81;4976773;28;20160;-83
2023/03/22 09:51:55;;;;;;;51.43;27.33;;;;;;;-141.97;80.62;47715.13;4976276;28;20168;-82
2023/03/22 09:54:31;;;;;;;55.70;28.93;;;;;;;-141.97;82.50;47580.59;4976403;28;20210;-82
2023/03/22 09:57:27;;;;;;;62.80;30.90;;;;;;;-141.97;82.50;47699.75;4976474;28;20225;-83
2023/03/22 10:00:04;;;;;;;53.27;28.33;;;;;;;-141.97;81.23;47680.53;4986418;28;20227;-84
2023/03/22 10:02:44;;;;;;;65.30;32.20;;;;;;;-141.97;81.04;47726.66;4968620;28;20633;-86
2023/03/22 10:05:40;;;;;;;98.20;53.07;;;;;;;-141.97;80.93;47738.19;4977102;28;20176;-85
2023/03/22 10:08:35;;;;;;;78.27;42.57;;;;;;;-141.97;80.52;47640.16;4976845;28;20629;-85
2023/03/22 10:11:01;;;;;;;73.97;40.87;;;;;;;-141.97;80.06;47851.59;4983431;28;20167;-86
2023/03/22 10:13:59;;;;;;;72.30;38.77;;;;;;;-141.97;79.64;47717.06;4992051;28;20289;-85
2023/03/22 10:16:34;;;;;;;66.10;34.60;;;;;;;-141.97;78.59;47718.97;4995027;28;20167;-88
2023/03/22 10:19:19;;;;;;;64.03;32.80;;;;;;;-141.97;78.04;47705.53;4992343;28;20616;-89
2023/03/22 10:21:47;;;;;;;61.80;31.20;;;;;;;-141.97;78.26;47657.47;4982224;28;20302;-87
2023/03/22 10:24:26;;;;;;;61.20;33.43;;;;;;;-141.97;77.03;47584.44;4996105;28;20179;-87
2023/03/22 10:26:52;;;;;;;63.77;34.50;;;;;;;-141.97;76.56;47574.81;4995926;28;20698;-87
2023/03/22 10:29:34;;;;;;;65.50;35.30;;;;;;;-141.97;75.06;47738.19;4993777;28;20176;-86
2023/03/22 10:32:19;;;;;;;63.40;32.93;;;;;;;-141.97;74.35;47665.16;4993418;28;20171;-85
2023/03/22 10:34:46;;;;;;;54.43;31.30;;;;;;;-141.97;72.45;47638.25;4976788;28;20242;-86
2023/03/22 10:37:19;;;;;;;56.77;29.67;;;;;;;-141.97;72.67;47711.28;4976273;28;20184;-89
2023/03/22 10:39:54;;;;;;;50.43;27.60;;;;;;;-141.97;71.61;47617.09;4984960;28;20184;-89
2023/03/22 10:42:23;;;;;;;42.43;23.80;;;;;;;-141.97;70.27;47707.44;4977436;28;20652;-89
2023/03/22 10:44:58;;;;;;;42.23;23.30;;;;;;;-141.97;70.96;47569.06;4976899;28;20171;-88
2023/03/22 10:47:35;;;;;;;36.03;20.10;;;;;;;-141.97;68.73;47751.66;4976897;28;20175;-87
2023/03/22 10:50:06;;;;;;;41.30;22.53;;;;;;;-141.97;69.80;47676.69;4976514;28;20195;-88
2023/03/22 10:53:28;;;;;;;38.37;21.37;;;;;;;-141.97;68.54;47672.84;4976215;28;20191;-88
2023/03/22 10:55:54;;;;;;;30.73;17.73;;;;;;;-141.97;68.76;47718.97;4973277;28;20676;-87
2023/03/22 10:58:27;;;;;;;33.47;19.17;;;;;;;-141.97;68.31;47815.09;4973082;28;20184;-87
2023/03/22 11:00:55;;;;;;;31.13;18.40;;;;;;;-141.97;68.85;47745.88;4959589;28;20244;-88
2023/03/22 11:03:39;;;;;;;34.60;19.33;;;;;;;-141.97;69.76;47678.63;4977064;28;20645;-89
2023/03/22 11:06:10;;;;;;;41.93;25.83;;;;;;;-141.97;69.62;47705.53;4959393;28;20207;-88
2023/03/22 11:08:39;;;;;;;28.67;17.10;;;;;;;-141.97;68.32;47724.75;4960983;28;20191;-87
2023/03/22 11:11:13;;;;;;;24.43;14.77;;;;;;;-141.97;67.12;47815.09;4991184;28;20198;-89